Weather at Mayfield Farm Airstrip

Public forecast

Using degrees Celsius for public forecast. Weather courtesy of forecast.io.

Closest aviation weather report (METAR) to Mayfield Farm Airstrip

Closest report is Glasgow Prestwick Airport, 10.5 nm (19.5 km) SE.

2024/02/24 03:20 (retrieved 17 minutes ago)

EGPK 240320Z 12006KT 9999 BKN034 02/01 Q0987

Closest aviation forecast (TAF) to Mayfield Farm Airstrip

Closest forecast is Leeds Bradford Airport, 151.6 nm (280.7 km) SE.

2024/02/24 18:33 (retrieved 0 seconds ago)

TAF EGNM 240026Z 2318/2418 CNL